Time;durP1;ratioP1;P1;durP2;ratioP2;P2;SDS_P1;SDS_P2;PMS_P1;PMS_P2;Temp;Humidity;BMP_temperature;BMP_pressure;BME280_temperature;BME280_humidity;BME280_pressure;Samples;Min_cycle;Max_cycle;Signal;HPM_P1;HPM_P2
2021/05/27 00:01:44;;;;;;;12.25;8.13;;;17.10;75.10;;;;;;5058981;28;20017;-73
2021/05/27 00:04:10;;;;;;;12.35;5.25;;;17.10;75.10;;;;;;5062378;28;20100;-78
2021/05/27 00:06:37;;;;;;;14.93;5.60;;;17.10;75.10;;;;;;5065385;28;20017;-71
2021/05/27 00:09:04;;;;;;;16.88;5.75;;;17.00;75.10;;;;;;5067560;28;20108;-70
2021/05/27 00:11:31;;;;;;;11.38;6.20;;;17.00;75.20;;;;;;5061653;28;20120;-79
2021/05/27 00:13:58;;;;;;;12.07;6.53;;;17.00;75.20;;;;;;5064083;28;20031;-70
2021/05/27 00:16:25;;;;;;;12.80;5.38;;;17.00;75.20;;;;;;5063844;28;20016;-70
2021/05/27 00:18:52;;;;;;;13.68;5.82;;;17.00;75.30;;;;;;5062775;28;20049;-75
2021/05/27 00:21:22;;;;;;;12.05;6.80;;;17.00;75.50;;;;;;5066406;28;20091;-78
2021/05/27 00:23:48;;;;;;;11.70;5.50;;;17.00;75.50;;;;;;5068181;28;20017;-71
2021/05/27 00:26:16;;;;;;;15.90;5.85;;;16.90;75.50;;;;;;5065497;28;20059;-71
2021/05/27 00:28:42;;;;;;;16.98;6.72;;;17.00;75.80;;;;;;5064920;28;20050;-70
2021/05/27 00:31:09;;;;;;;15.75;6.03;;;16.90;75.80;;;;;;5063633;28;20016;-70
2021/05/27 00:33:35;;;;;;;13.25;4.95;;;16.90;75.90;;;;;;5063375;28;20036;-71
2021/05/27 00:36:02;;;;;;;12.35;5.43;;;16.90;76.10;;;;;;5062986;28;20066;-81
2021/05/27 00:38:29;;;;;;;12.20;5.57;;;16.90;76.20;;;;;;5067621;28;20488;-81
2021/05/27 00:40:56;;;;;;;11.00;4.53;;;16.90;76.30;;;;;;5066116;28;20025;-74
2021/05/27 00:43:22;;;;;;;8.60;4.45;;;16.90;76.40;;;;;;5068405;28;20039;-74
2021/05/27 00:45:48;;;;;;;14.82;6.75;;;16.90;76.40;;;;;;5063028;28;20055;-70
2021/05/27 00:51:00;;;;;;;11.15;5.28;;;16.90;76.60;;;;;;5063785;28;20039;-73
2021/05/27 00:53:27;;;;;;;15.98;5.22;;;16.90;76.70;;;;;;5067600;28;20029;-70
2021/05/27 00:55:58;;;;;;;11.70;4.80;;;16.90;76.70;;;;;;5065090;28;20032;-71
2021/05/27 00:58:26;;;;;;;10.73;4.70;;;16.90;76.80;;;;;;5069176;28;20075;-79
2021/05/27 01:00:53;;;;;;;11.63;5.22;;;16.90;76.90;;;;;;5070072;28;20016;-70
2021/05/27 01:03:20;;;;;;;13.50;5.18;;;16.90;76.90;;;;;;5063235;28;20973;-81
2021/05/27 01:05:46;;;;;;;10.70;5.38;;;16.90;77.00;;;;;;5068238;28;20486;-70
2021/05/27 01:08:14;;;;;;;11.10;4.30;;;16.90;77.00;;;;;;5068201;28;20013;-73
2021/05/27 01:10:41;;;;;;;10.90;4.05;;;16.90;77.00;;;;;;5066376;28;20488;-78
2021/05/27 01:13:08;;;;;;;12.00;4.72;;;17.00;77.10;;;;;;5070943;28;20059;-70
2021/05/27 01:15:35;;;;;;;9.25;3.88;;;16.90;77.10;;;;;;5069845;28;20012;-70
2021/05/27 01:18:11;;;;;;;8.38;3.42;;;16.90;77.20;;;;;;5066421;28;20024;-74
2021/05/27 01:20:39;;;;;;;11.13;4.03;;;16.90;77.30;;;;;;5061947;28;20477;-70
2021/05/27 01:23:07;;;;;;;10.93;4.47;;;16.90;77.50;;;;;;5068061;28;20080;-71
2021/05/27 01:25:33;;;;;;;12.82;4.25;;;16.90;78.30;;;;;;5069564;28;20572;-70
2021/05/27 01:28:00;;;;;;;6.63;3.60;;;16.90;77.90;;;;;;5070083;28;20040;-74
2021/05/27 01:30:26;;;;;;;8.40;3.95;;;16.90;77.90;;;;;;5070050;28;20479;-79
2021/05/27 01:32:53;;;;;;;12.15;4.72;;;17.00;78.20;;;;;;5048390;28;20025;-74
2021/05/27 01:35:22;;;;;;;11.70;3.33;;;17.00;78.30;;;;;;5068296;28;20429;-73
2021/05/27 01:37:49;;;;;;;14.60;3.58;;;17.00;78.50;;;;;;5065270;28;20549;-70
2021/05/27 01:40:21;;;;;;;7.60;3.05;;;17.00;78.60;;;;;;5069560;28;20116;-70
2021/05/27 01:42:48;;;;;;;12.32;5.07;;;17.00;79.30;;;;;;5069432;28;20443;-70
2021/05/27 01:45:15;;;;;;;7.10;3.20;;;17.00;78.80;;;;;;5066737;28;20460;-73
2021/05/27 01:47:42;;;;;;;9.63;3.50;;;17.00;79.00;;;;;;5066602;28;20036;-70
2021/05/27 01:50:10;;;;;;;7.55;3.40;;;17.00;79.00;;;;;;5063518;28;20384;-70
2021/05/27 01:52:37;;;;;;;5.85;2.45;;;17.00;79.00;;;;;;5069960;28;20119;-70
2021/05/27 01:55:04;;;;;;;9.68;4.07;;;17.00;79.10;;;;;;5066350;28;20442;-81
2021/05/27 01:57:31;;;;;;;7.20;2.58;;;17.00;79.00;;;;;;5066490;28;20025;-72
2021/05/27 01:59:57;;;;;;;7.80;4.07;;;17.00;79.00;;;;;;5067394;28;20017;-70
2021/05/27 02:02:24;;;;;;;9.57;3.80;;;17.00;79.00;;;;;;5067968;28;20607;-71
2021/05/27 02:04:50;;;;;;;8.00;3.95;;;17.00;78.90;;;;;;5066582;28;20566;-71
2021/05/27 02:07:17;;;;;;;8.55;4.97;;;17.00;79.00;;;;;;5066541;28;20411;-70
2021/05/27 02:09:43;;;;;;;22.80;12.18;;;17.00;79.00;;;;;;5069780;28;20127;-71
2021/05/27 02:12:10;;;;;;;15.95;10.20;;;17.00;79.00;;;;;;5065534;28;20028;-70
2021/05/27 02:14:36;;;;;;;13.07;7.90;;;17.00;79.10;;;;;;5068245;28;20024;-80
2021/05/27 02:17:03;;;;;;;11.00;5.80;;;17.00;79.20;;;;;;5063064;28;20472;-70
2021/05/27 02:19:29;;;;;;;12.25;6.10;;;17.00;79.20;;;;;;5064920;28;20496;-70
2021/05/27 02:21:56;;;;;;;10.13;5.07;;;17.00;79.20;;;;;;5067511;28;20107;-72
2021/05/27 02:24:22;;;;;;;7.97;5.35;;;17.00;79.30;;;;;;5065471;28;20556;-71
2021/05/27 02:26:49;;;;;;;12.32;4.63;;;17.00;79.30;;;;;;5066563;28;20063;-80
2021/05/27 02:29:15;;;;;;;8.57;4.18;;;17.00;79.30;;;;;;5063680;28;20630;-70
2021/05/27 02:31:42;;;;;;;7.47;3.70;;;17.00;79.40;;;;;;5066483;28;20465;-70
2021/05/27 02:34:09;;;;;;;14.82;4.88;;;17.00;79.50;;;;;;5066899;28;20095;-70
2021/05/27 02:36:35;;;;;;;10.35;4.82;;;17.00;79.50;;;;;;5068471;28;20640;-70
2021/05/27 02:39:03;;;;;;;13.10;4.93;;;17.00;79.60;;;;;;5066108;28;20020;-76
2021/05/27 02:41:29;;;;;;;6.18;3.47;;;17.00;79.60;;;;;;5066242;28;20019;-79
2021/05/27 02:43:56;;;;;;;9.80;6.40;;;17.00;79.60;;;;;;5068311;28;20033;-72
2021/05/27 02:46:22;;;;;;;15.90;10.45;;;17.00;79.60;;;;;;5060700;28;20013;-79
2021/05/27 02:48:49;;;;;;;11.93;10.55;;;17.00;79.60;;;;;;5066045;28;20017;-69
2021/05/27 02:51:16;;;;;;;17.02;10.45;;;17.00;79.50;;;;;;5066148;28;20035;-71
2021/05/27 02:53:42;;;;;;;19.75;9.40;;;17.00;79.40;;;;;;5068769;28;20089;-81
2021/05/27 02:56:09;;;;;;;14.65;8.95;;;17.00;79.30;;;;;;5066004;28;20016;-73
2021/05/27 02:58:36;;;;;;;14.75;7.38;;;17.00;79.30;;;;;;5064390;28;20484;-76
2021/05/27 03:01:03;;;;;;;15.98;7.47;;;17.00;79.20;;;;;;5063507;28;20020;-77
2021/05/27 03:03:29;;;;;;;19.85;8.60;;;16.90;79.10;;;;;;5066504;28;20032;-77
2021/05/27 03:05:58;;;;;;;11.13;6.05;;;16.90;79.00;;;;;;5064716;28;20929;-75
2021/05/27 03:08:25;;;;;;;12.73;6.88;;;16.90;79.00;;;;;;5064115;28;20401;-70
2021/05/27 03:10:51;;;;;;;13.07;6.53;;;16.90;79.00;;;;;;5065579;28;20017;-70
2021/05/27 03:13:17;;;;;;;12.65;5.32;;;16.90;79.00;;;;;;5066197;28;20107;-76
2021/05/27 03:15:44;;;;;;;9.82;4.75;;;16.90;79.00;;;;;;5064953;28;20315;-70
2021/05/27 03:18:11;;;;;;;11.02;5.82;;;16.90;79.10;;;;;;5065698;28;20017;-72
2021/05/27 03:20:38;;;;;;;13.18;5.43;;;16.90;79.20;;;;;;5065115;28;20396;-69
2021/05/27 03:23:05;;;;;;;10.60;4.82;;;16.90;79.20;;;;;;5066256;28;20094;-69
2021/05/27 03:25:33;;;;;;;15.18;7.10;;;16.90;79.20;;;;;;5067263;28;20036;-76
2021/05/27 03:28:00;;;;;;;9.45;4.90;;;16.90;79.30;;;;;;5066650;28;20463;-69
2021/05/27 03:30:27;;;;;;;11.60;6.35;;;16.90;79.40;;;;;;5067594;28;20396;-74
2021/05/27 03:32:53;;;;;;;23.48;13.50;;;16.90;79.50;;;;;;5067400;28;20024;-78
2021/05/27 03:35:20;;;;;;;16.33;10.23;;;16.90;79.50;;;;;;5061904;28;20438;-75
2021/05/27 03:37:46;;;;;;;16.55;9.05;;;16.90;79.50;;;;;;5064649;28;20031;-81
2021/05/27 03:40:13;;;;;;;16.70;6.95;;;16.90;79.50;;;;;;5067365;28;20031;-69
2021/05/27 03:42:45;;;;;;;11.25;6.72;;;16.90;79.50;;;;;;5062344;28;20028;-69
2021/05/27 03:45:18;;;;;;;12.77;5.65;;;16.90;79.40;;;;;;5058558;28;20024;-69
2021/05/27 03:47:44;;;;;;;13.02;6.15;;;16.90;79.40;;;;;;5061871;28;20009;-70
2021/05/27 03:50:14;;;;;;;9.45;4.50;;;16.90;79.40;;;;;;5061745;28;20044;-70
2021/05/27 03:52:40;;;;;;;12.07;5.32;;;16.80;79.30;;;;;;5066234;28;20564;-78
2021/05/27 03:55:10;;;;;;;10.93;4.75;;;16.80;79.40;;;;;;5062492;28;20138;-73
2021/05/27 03:57:37;;;;;;;7.80;4.63;;;16.80;79.30;;;;;;5069788;28;20490;-73
2021/05/27 04:02:52;;;;;;;13.20;6.18;;;16.80;79.20;;;;;;5068459;28;20036;-69
2021/05/27 04:08:05;;;;;;;15.43;6.28;;;16.80;79.20;;;;;;5062979;28;20362;-71
2021/05/27 04:10:33;;;;;;;13.10;6.35;;;16.80;79.20;;;;;;5066284;28;20016;-70
2021/05/27 04:13:00;;;;;;;18.20;11.65;;;16.80;79.20;;;;;;5063789;28;20070;-72
2021/05/27 04:15:29;;;;;;;22.40;14.82;;;16.80;79.30;;;;;;5067416;28;20796;-68
2021/05/27 04:17:57;;;;;;;18.80;13.73;;;16.80;79.30;;;;;;5063471;28;20028;-76
2021/05/27 04:20:32;;;;;;;17.08;11.40;;;16.80;79.50;;;;;;5064944;28;20020;-72
2021/05/27 04:22:59;;;;;;;16.63;9.05;;;16.80;79.60;;;;;;5062713;28;20024;-71
2021/05/27 04:25:26;;;;;;;13.85;8.38;;;16.80;79.70;;;;;;5065263;28;20040;-70
2021/05/27 04:27:54;;;;;;;13.82;9.68;;;16.70;79.90;;;;;;5063630;28;20017;-71
2021/05/27 04:30:22;;;;;;;14.23;7.20;;;16.70;80.10;;;;;;5066286;28;20036;-69
2021/05/27 04:33:11;;;;;;;24.50;8.00;;;16.70;80.30;;;;;;5063835;28;20085;-75
2021/05/27 04:35:42;;;;;;;12.52;6.13;;;16.70;80.30;;;;;;5067652;28;20029;-76
2021/05/27 04:38:12;;;;;;;80.20;62.80;;;16.70;80.40;;;;;;5067052;28;20028;-69
2021/05/27 04:40:43;;;;;;;121.68;95.25;;;16.70;80.30;;;;;;5064149;28;20009;-73
2021/05/27 04:43:55;;;;;;;88.55;67.82;;;16.60;80.20;;;;;;5062222;28;20029;-70
2021/05/27 04:47:01;;;;;;;60.53;41.58;;;16.60;80.30;;;;;;5062616;28;20059;-75
2021/05/27 04:50:07;;;;;;;48.03;31.02;;;16.60;80.20;;;;;;5041788;28;20025;-77
2021/05/27 04:53:13;;;;;;;27.98;18.77;;;16.60;80.10;;;;;;5060249;28;20036;-73
2021/05/27 04:56:21;;;;;;;26.25;15.00;;;16.50;80.00;;;;;;5043539;28;20083;-73
2021/05/27 04:58:48;;;;;;;28.90;13.63;;;16.60;80.20;;;;;;5064084;28;20075;-75
2021/05/27 05:01:14;;;;;;;20.33;11.20;;;16.60;80.20;;;;;;5064633;28;20119;-76
2021/05/27 05:03:41;;;;;;;21.17;12.27;;;16.60;80.30;;;;;;5064116;28;20514;-77
2021/05/27 05:06:07;;;;;;;16.85;9.05;;;16.60;80.40;;;;;;5065553;28;20021;-71
2021/05/27 05:08:33;;;;;;;19.08;9.57;;;16.60;80.50;;;;;;5065206;28;20099;-69
2021/05/27 05:11:01;;;;;;;25.23;8.82;;;16.60;80.70;;;;;;5062998;28;20425;-80
2021/05/27 05:13:28;;;;;;;15.90;7.78;;;16.60;80.80;;;;;;5063875;28;20037;-79
2021/05/27 05:15:55;;;;;;;16.13;8.50;;;16.60;81.00;;;;;;5061209;28;20021;-70
2021/05/27 05:18:21;;;;;;;16.75;8.65;;;16.60;81.20;;;;;;5062625;28;20506;-76
2021/05/27 05:20:49;;;;;;;14.90;8.20;;;16.60;81.40;;;;;;5051073;28;20031;-80
2021/05/27 05:23:16;;;;;;;11.95;7.35;;;16.60;81.50;;;;;;5065092;28;20527;-78
2021/05/27 05:25:43;;;;;;;14.98;7.25;;;16.70;81.80;;;;;;5065836;28;20709;-72
2021/05/27 05:28:14;;;;;;;19.67;7.10;;;16.70;81.80;;;;;;5065483;28;20039;-69
2021/05/27 05:30:41;;;;;;;23.90;9.77;;;16.70;81.90;;;;;;5068800;28;20020;-70
2021/05/27 05:33:08;;;;;;;20.55;10.23;;;16.70;82.20;;;;;;5065549;28;20034;-73
2021/05/27 05:35:35;;;;;;;15.05;8.43;;;16.70;82.20;;;;;;5066355;28;20396;-78
2021/05/27 05:38:02;;;;;;;21.88;10.00;;;16.70;82.30;;;;;;5069166;28;20367;-75
2021/05/27 05:40:29;;;;;;;17.40;8.32;;;16.70;82.40;;;;;;5066129;28;20028;-71
2021/05/27 05:42:56;;;;;;;15.30;8.27;;;16.70;82.40;;;;;;5064578;28;20028;-76
2021/05/27 05:45:24;;;;;;;17.00;9.05;;;16.70;82.50;;;;;;5068746;28;20016;-75
2021/05/27 05:47:51;;;;;;;22.48;10.77;;;16.70;82.50;;;;;;5066826;28;20023;-70
2021/05/27 05:53:09;;;;;;;20.20;11.15;;;16.70;82.60;;;;;;5064074;28;20043;-78
2021/05/27 05:55:36;;;;;;;23.00;9.82;;;16.80;82.80;;;;;;5070297;28;20023;-73
2021/05/27 05:58:03;;;;;;;16.98;10.32;;;16.80;82.80;;;;;;5068807;28;20051;-73
2021/05/27 06:00:30;;;;;;;17.55;9.30;;;16.80;82.80;;;;;;5066151;28;20017;-72
2021/05/27 06:02:57;;;;;;;18.08;9.57;;;16.80;82.80;;;;;;5061632;28;20655;-76
2021/05/27 06:05:24;;;;;;;17.63;8.82;;;16.80;82.80;;;;;;5056800;28;20400;-74
2021/05/27 06:07:50;;;;;;;14.32;8.18;;;16.80;82.80;;;;;;5069324;28;20048;-72
2021/05/27 06:10:17;;;;;;;19.35;8.18;;;16.80;82.80;;;;;;5065824;28;20562;-78
2021/05/27 06:12:43;;;;;;;18.25;9.43;;;16.70;82.70;;;;;;5065325;28;20082;-70
2021/05/27 06:15:10;;;;;;;21.45;7.75;;;16.80;82.80;;;;;;5059623;28;20375;-75
2021/05/27 06:17:37;;;;;;;14.23;6.82;;;16.70;82.70;;;;;;5069112;28;20092;-70
2021/05/27 06:20:04;;;;;;;11.55;7.32;;;16.70;82.70;;;;;;5069827;28;20024;-69
2021/05/27 06:22:30;;;;;;;15.48;6.50;;;16.70;82.80;;;;;;5066841;28;20020;-73
2021/05/27 06:24:57;;;;;;;11.93;6.50;;;16.70;82.80;;;;;;5065733;28;20117;-73
2021/05/27 06:27:23;;;;;;;11.60;6.32;;;16.70;82.80;;;;;;5067637;28;20044;-69
2021/05/27 06:29:50;;;;;;;14.27;6.85;;;16.70;82.90;;;;;;5068506;28;20078;-75
2021/05/27 06:32:16;;;;;;;11.63;6.30;;;16.70;83.00;;;;;;5050366;28;20483;-75
2021/05/27 06:34:44;;;;;;;9.73;6.00;;;16.70;83.10;;;;;;5064155;28;20017;-76
2021/05/27 06:37:10;;;;;;;11.13;5.30;;;16.70;83.30;;;;;;5066632;28;20032;-75
2021/05/27 06:39:37;;;;;;;11.35;5.78;;;16.70;83.40;;;;;;5067260;28;20008;-75
2021/05/27 06:42:03;;;;;;;9.88;5.30;;;16.70;83.50;;;;;;5065820;28;20021;-74
2021/05/27 06:44:30;;;;;;;12.88;6.00;;;16.70;83.60;;;;;;5066893;28;20009;-69
2021/05/27 06:46:57;;;;;;;7.97;5.60;;;16.70;83.70;;;;;;5068016;28;20025;-76
2021/05/27 06:49:23;;;;;;;11.27;5.85;;;16.70;84.60;;;;;;5065977;28;20044;-76
2021/05/27 06:51:50;;;;;;;13.45;5.35;;;16.70;84.10;;;;;;5068034;28;20016;-76
2021/05/27 06:54:16;;;;;;;8.15;4.38;;;16.70;84.20;;;;;;5066890;28;20558;-71
2021/05/27 06:56:43;;;;;;;10.32;5.68;;;16.80;84.40;;;;;;5066556;28;20068;-75
2021/05/27 06:59:09;;;;;;;9.77;4.57;;;16.80;84.60;;;;;;5068919;28;20021;-77
2021/05/27 07:01:36;;;;;;;9.55;4.63;;;16.80;84.70;;;;;;5063283;28;20073;-71
2021/05/27 07:04:02;;;;;;;8.98;5.18;;;16.80;84.70;;;;;;5067496;28;20020;-71
2021/05/27 07:06:29;;;;;;;6.88;4.50;;;16.80;84.70;;;;;;5063943;28;20013;-68
2021/05/27 07:08:55;;;;;;;5.10;3.90;;;16.90;84.80;;;;;;5068702;28;20021;-73
2021/05/27 07:11:22;;;;;;;6.85;4.00;;;16.90;84.80;;;;;;5066686;28;20061;-72
2021/05/27 07:13:48;;;;;;;6.40;4.68;;;16.90;84.90;;;;;;5067643;28;20024;-69
2021/05/27 07:16:14;;;;;;;5.15;4.07;;;16.90;85.60;;;;;;5067544;28;20032;-72
2021/05/27 07:18:41;;;;;;;5.07;3.95;;;16.90;85.00;;;;;;5064074;28;20016;-69
2021/05/27 07:21:07;;;;;;;4.72;3.25;;;17.00;85.10;;;;;;5066474;28;20013;-71
2021/05/27 07:23:34;;;;;;;10.50;3.65;;;17.00;85.10;;;;;;5067598;28;20012;-73
2021/05/27 07:26:02;;;;;;;5.32;2.67;;;17.00;85.10;;;;;;5066795;28;20113;-68
2021/05/27 07:28:29;;;;;;;3.80;2.90;;;17.00;85.10;;;;;;5060935;28;20025;-69
2021/05/27 07:30:56;;;;;;;4.07;2.65;;;17.00;85.10;;;;;;5061366;28;20078;-70
2021/05/27 07:33:22;;;;;;;5.30;3.03;;;17.10;85.10;;;;;;5064521;28;20032;-78
2021/05/27 07:35:49;;;;;;;5.07;2.88;;;17.10;85.10;;;;;;5067615;28;20482;-76
2021/05/27 07:38:15;;;;;;;4.50;3.00;;;17.10;85.10;;;;;;5066944;28;20020;-74
2021/05/27 07:40:42;;;;;;;4.97;3.55;;;17.10;85.10;;;;;;5066430;28;20016;-73
2021/05/27 07:43:08;;;;;;;5.45;3.10;;;17.10;85.10;;;;;;5062737;28;20083;-73
2021/05/27 07:45:35;;;;;;;5.97;2.65;;;17.10;85.10;;;;;;5061666;28;20016;-71
2021/05/27 07:48:01;;;;;;;5.18;2.83;;;17.10;85.00;;;;;;5063483;28;20095;-71
2021/05/27 07:50:27;;;;;;;3.83;3.10;;;17.10;85.10;;;;;;5066939;28;20107;-69
2021/05/27 07:52:55;;;;;;;4.75;2.97;;;17.20;85.10;;;;;;5066765;28;20025;-69
2021/05/27 07:55:21;;;;;;;4.32;3.03;;;17.20;85.20;;;;;;5061950;28;20021;-69
2021/05/27 07:57:48;;;;;;;5.28;3.35;;;17.20;85.20;;;;;;5047842;28;20005;-80
2021/05/27 08:00:15;;;;;;;4.68;3.47;;;17.20;85.20;;;;;;5064922;28;20116;-78
2021/05/27 08:02:42;;;;;;;6.03;3.35;;;17.20;85.10;;;;;;5065576;28;20041;-72
2021/05/27 08:05:09;;;;;;;6.72;4.30;;;17.20;85.10;;;;;;5063465;28;20040;-74
2021/05/27 08:07:37;;;;;;;6.47;4.97;;;17.30;85.10;;;;;;5067463;28;20391;-79
2021/05/27 08:10:04;;;;;;;9.50;4.50;;;17.30;85.10;;;;;;5068584;28;20017;-77
2021/05/27 08:12:31;;;;;;;6.65;4.90;;;17.30;85.10;;;;;;5065793;28;20028;-80
2021/05/27 08:14:58;;;;;;;8.88;5.03;;;17.30;85.00;;;;;;5065229;28;20121;-72
2021/05/27 08:17:25;;;;;;;9.52;4.88;;;17.40;85.00;;;;;;5063456;28;20099;-78
2021/05/27 08:19:52;;;;;;;9.50;5.53;;;17.40;84.90;;;;;;5065933;28;20365;-70
2021/05/27 08:22:19;;;;;;;7.82;5.10;;;17.40;84.90;;;;;;5067695;28;20033;-69
2021/05/27 08:24:45;;;;;;;7.38;4.70;;;17.40;84.90;;;;;;5062072;28;20055;-71
2021/05/27 08:27:12;;;;;;;10.55;5.38;;;17.50;84.90;;;;;;5067716;28;20505;-71
2021/05/27 08:29:38;;;;;;;10.82;5.50;;;17.50;85.00;;;;;;5064265;28;20056;-77
2021/05/27 08:32:09;;;;;;;6.72;5.10;;;17.50;85.00;;;;;;5068864;28;20015;-72
2021/05/27 08:34:36;;;;;;;7.70;6.25;;;17.60;85.00;;;;;;5052908;28;20067;-68
2021/05/27 08:37:02;;;;;;;8.77;5.00;;;17.60;85.70;;;;;;5051391;28;20471;-68
2021/05/27 08:39:29;;;;;;;9.65;5.57;;;17.60;85.00;;;;;;5069472;28;20365;-74
2021/05/27 08:41:57;;;;;;;9.82;5.20;;;17.60;84.90;;;;;;5069694;28;20480;-71
2021/05/27 08:44:24;;;;;;;10.77;6.43;;;17.70;85.00;;;;;;5071751;28;20293;-73
2021/05/27 08:46:50;;;;;;;8.55;5.25;;;17.70;84.90;;;;;;5065558;28;20012;-72
2021/05/27 08:49:18;;;;;;;9.95;5.90;;;17.70;84.90;;;;;;5066576;28;20069;-68
2021/05/27 08:51:44;;;;;;;8.07;5.20;;;17.70;84.90;;;;;;5064945;28;20494;-74
2021/05/27 08:54:11;;;;;;;11.18;5.35;;;17.70;84.90;;;;;;5068562;28;20032;-70
2021/05/27 08:56:38;;;;;;;8.10;4.68;;;17.80;85.00;;;;;;5065400;28;20024;-72
2021/05/27 08:59:05;;;;;;;9.02;4.80;;;17.80;84.80;;;;;;5067781;28;20508;-73
2021/05/27 09:01:32;;;;;;;7.07;4.68;;;17.80;84.80;;;;;;5070881;28;20024;-70
2021/05/27 09:03:58;;;;;;;12.07;4.57;;;17.80;84.80;;;;;;5067397;28;20024;-74
2021/05/27 09:06:26;;;;;;;8.48;4.95;;;17.80;84.70;;;;;;5068376;28;20103;-70
2021/05/27 09:09:08;;;;;;;10.85;4.72;;;17.80;84.70;;;;;;5065321;28;20415;-70
2021/05/27 09:11:38;;;;;;;7.85;4.70;;;17.80;85.00;;;;;;5067561;28;20027;-71
2021/05/27 09:14:05;;;;;;;10.05;4.22;;;17.90;85.20;;;;;;5065877;28;20078;-72
2021/05/27 09:16:31;;;;;;;7.32;3.95;;;17.80;85.10;;;;;;5066787;28;20023;-69
2021/05/27 09:19:13;;;;;;;7.20;3.08;;;17.90;85.20;;;;;;5065951;28;20029;-73
2021/05/27 09:21:42;;;;;;;7.43;3.95;;;17.90;85.30;;;;;;5069008;28;20028;-77
2021/05/27 09:24:09;;;;;;;8.23;2.80;;;17.90;85.20;;;;;;5052509;28;20376;-79
2021/05/27 09:26:57;;;;;;;6.15;3.05;;;17.90;85.20;;;;;;5069388;28;20890;-70
2021/05/27 09:29:23;;;;;;;8.63;2.85;;;17.90;85.30;;;;;;5067948;28;20017;-78
2021/05/27 09:32:01;;;;;;;8.90;2.53;;;17.90;85.20;;;;;;5066656;28;20047;-70
2021/05/27 09:34:47;;;;;;;3.55;2.08;;;18.00;84.70;;;;;;5067849;28;20028;-79
2021/05/27 09:37:21;;;;;;;7.60;3.25;;;18.00;83.90;;;;;;5063996;28;20010;-72
2021/05/27 09:39:49;;;;;;;5.90;1.67;;;18.10;83.20;;;;;;5066660;28;20112;-71
2021/05/27 09:42:16;;;;;;;13.55;2.38;;;18.10;82.50;;;;;;5065483;28;20045;-69
2021/05/27 09:44:43;;;;;;;7.55;2.90;;;18.20;82.80;;;;;;5068844;28;20603;-70
2021/05/27 09:47:10;;;;;;;7.88;2.00;;;18.20;81.90;;;;;;5067690;28;20056;-80
2021/05/27 09:49:55;;;;;;;7.43;1.70;;;18.30;81.70;;;;;;5067263;28;20104;-75
2021/05/27 09:52:24;;;;;;;2.30;1.20;;;18.40;81.60;;;;;;5062986;28;20082;-73
2021/05/27 09:54:58;;;;;;;5.22;1.88;;;18.40;80.70;;;;;;5069196;28;20094;-68
2021/05/27 09:57:27;;;;;;;8.32;3.03;;;18.50;79.90;;;;;;5067586;28;20365;-70
2021/05/27 09:59:55;;;;;;;2.45;1.30;;;18.50;79.30;;;;;;5067265;28;20028;-72
2021/05/27 10:02:23;;;;;;;9.15;1.50;;;18.60;78.80;;;;;;5070161;28;20020;-73
2021/05/27 10:04:58;;;;;;;6.10;1.40;;;18.60;77.70;;;;;;5068997;28;20017;-69
2021/05/27 10:07:46;;;;;;;5.03;1.38;;;18.70;77.20;;;;;;5062841;28;20060;-73
2021/05/27 10:10:14;;;;;;;7.25;1.40;;;18.70;76.10;;;;;;5067595;28;20029;-68
2021/05/27 10:12:43;;;;;;;4.03;1.25;;;18.70;75.90;;;;;;5066831;28;20115;-68
2021/05/27 10:15:13;;;;;;;5.38;1.38;;;18.70;75.40;;;;;;5064366;28;20039;-69
2021/05/27 10:17:40;;;;;;;3.47;1.60;;;18.80;75.30;;;;;;5068365;28;20025;-71
2021/05/27 10:20:12;;;;;;;5.38;2.03;;;18.90;75.60;;;;;;5066620;28;20024;-68
2021/05/27 10:22:39;;;;;;;8.10;1.60;;;18.90;75.70;;;;;;5068051;28;20024;-68
2021/05/27 10:25:08;;;;;;;5.72;2.08;;;19.00;74.90;;;;;;5066374;28;20064;-69
2021/05/27 10:27:36;;;;;;;3.55;1.25;;;19.00;74.20;;;;;;5068930;28;20042;-69
2021/05/27 10:30:05;;;;;;;2.17;1.42;;;19.10;73.80;;;;;;5063966;28;20484;-69
2021/05/27 10:32:38;;;;;;;6.60;1.73;;;19.10;73.40;;;;;;5062150;28;20040;-69
2021/05/27 10:35:05;;;;;;;7.30;1.20;;;19.10;72.60;;;;;;5050584;28;20025;-71
2021/05/27 10:37:34;;;;;;;9.45;1.83;;;19.10;72.50;;;;;;5066764;28;20052;-71
2021/05/27 10:40:32;;;;;;;7.30;2.25;;;19.20;72.60;;;;;;5066047;28;20021;-75
2021/05/27 10:43:04;;;;;;;6.22;2.45;;;19.20;72.70;;;;;;5064382;28;20496;-72
2021/05/27 10:45:33;;;;;;;6.05;1.30;;;19.20;72.70;;;;;;5068883;28;20024;-71
2021/05/27 10:48:14;;;;;;;3.53;1.20;;;19.20;72.40;;;;;;5063894;28;20024;-69
2021/05/27 10:50:55;;;;;;;10.60;1.75;;;19.20;72.40;;;;;;5067830;28;20480;-72
2021/05/27 10:53:40;;;;;;;3.28;1.38;;;19.20;72.00;;;;;;5065015;28;20028;-69
2021/05/27 10:56:11;;;;;;;3.10;1.00;;;19.20;72.40;;;;;;5064094;28;20021;-69
2021/05/27 10:58:46;;;;;;;4.28;1.85;;;19.20;73.00;;;;;;5064851;28;20028;-68
2021/05/27 11:01:17;;;;;;;7.15;1.25;;;19.10;73.30;;;;;;5064488;28;20107;-70
2021/05/27 11:03:50;;;;;;;3.47;1.40;;;19.10;73.90;;;;;;5066174;28;20349;-70
2021/05/27 11:06:36;;;;;;;9.20;1.45;;;19.10;74.40;;;;;;5063182;28;20054;-69
2021/05/27 11:11:57;;;;;;;7.18;1.33;;;19.10;74.80;;;;;;5066928;28;20433;-70
2021/05/27 11:14:36;;;;;;;8.73;2.83;;;19.10;74.90;;;;;;5068045;28;20119;-69
2021/05/27 11:17:03;;;;;;;6.57;1.67;;;19.00;75.10;;;;;;5067849;28;20081;-70
2021/05/27 11:19:55;;;;;;;3.30;1.40;;;19.10;75.20;;;;;;5064106;28;20032;-69
2021/05/27 11:22:28;;;;;;;6.05;1.15;;;19.10;75.50;;;;;;5066568;28;20020;-75
2021/05/27 11:25:16;;;;;;;6.97;3.00;;;19.10;76.40;;;;;;5063249;28;20055;-76
2021/05/27 11:27:44;;;;;;;8.45;1.80;;;19.20;75.90;;;;;;5067951;28;20491;-75
2021/05/27 11:30:21;;;;;;;6.88;2.10;;;19.20;75.90;;;;;;5060817;28;20099;-72
2021/05/27 11:32:51;;;;;;;9.27;1.88;;;19.30;75.80;;;;;;5064300;28;20123;-72
2021/05/27 11:35:19;;;;;;;6.32;2.53;;;19.30;75.60;;;;;;5064778;28;20021;-76
2021/05/27 11:37:46;;;;;;;7.93;1.90;;;19.30;75.50;;;;;;5066269;28;20395;-76
2021/05/27 11:40:16;;;;;;;14.02;4.00;;;19.40;75.40;;;;;;5062668;28;20041;-78
2021/05/27 11:42:51;;;;;;;8.13;1.95;;;19.30;75.10;;;;;;5066645;28;20009;-69
2021/05/27 11:45:19;;;;;;;12.82;1.73;;;19.30;74.70;;;;;;5064698;28;20021;-69
2021/05/27 11:48:30;;;;;;;5.72;1.73;;;19.30;75.20;;;;;;5062006;28;20025;-69
2021/05/27 11:50:59;;;;;;;4.93;1.63;;;19.30;74.60;;;;;;5055652;28;20415;-71
2021/05/27 11:53:26;;;;;;;4.15;1.30;;;19.30;74.50;;;;;;5065333;28;20025;-70
2021/05/27 11:55:57;;;;;;;6.28;1.20;;;19.30;74.40;;;;;;5065466;28;20039;-70
2021/05/27 11:58:33;;;;;;;5.57;1.27;;;19.30;74.50;;;;;;5063615;28;20028;-70
2021/05/27 12:01:16;;;;;;;6.20;1.30;;;19.30;74.50;;;;;;5064492;28;21464;-74
2021/05/27 12:04:06;;;;;;;6.55;1.60;;;19.20;74.70;;;;;;5067376;28;20027;-70
2021/05/27 12:06:52;;;;;;;6.95;1.77;;;19.20;74.90;;;;;;5059013;28;20104;-71
2021/05/27 12:09:28;;;;;;;7.78;1.80;;;19.10;75.00;;;;;;5070046;28;20025;-69
2021/05/27 12:11:56;;;;;;;9.77;1.98;;;19.10;75.70;;;;;;5067703;28;20039;-69
2021/05/27 12:14:23;;;;;;;10.40;2.30;;;19.00;75.30;;;;;;5067589;28;20072;-69
2021/05/27 12:16:53;;;;;;;6.15;1.73;;;19.00;75.30;;;;;;5069492;28;20017;-71
2021/05/27 12:19:20;;;;;;;4.97;1.52;;;18.90;75.50;;;;;;5071964;28;20012;-73
2021/05/27 12:21:57;;;;;;;5.97;1.73;;;19.00;75.90;;;;;;5068645;28;20028;-71
2021/05/27 12:24:30;;;;;;;7.68;2.10;;;18.90;76.10;;;;;;5069658;28;20056;-75
2021/05/27 12:26:58;;;;;;;6.30;1.40;;;18.90;76.10;;;;;;5066754;28;20103;-69
2021/05/27 12:29:25;;;;;;;3.45;1.80;;;18.90;76.20;;;;;;5070323;28;20021;-70
2021/05/27 12:31:52;;;;;;;4.50;2.35;;;18.90;76.30;;;;;;5068375;28;20542;-71
2021/05/27 12:34:20;;;;;;;6.72;2.17;;;18.90;76.40;;;;;;5067669;28;20119;-75
2021/05/27 12:37:01;;;;;;;7.68;1.80;;;18.90;76.40;;;;;;5068909;28;20082;-75
2021/05/27 12:39:40;;;;;;;5.88;1.52;;;18.80;76.30;;;;;;5067469;28;20031;-69
2021/05/27 12:42:08;;;;;;;6.30;1.70;;;18.90;76.40;;;;;;5071278;28;20480;-70
2021/05/27 12:44:40;;;;;;;8.02;2.67;;;18.80;76.50;;;;;;5070798;28;20094;-70
2021/05/27 12:47:18;;;;;;;9.43;2.20;;;18.80;76.60;;;;;;5070416;28;20201;-70
2021/05/27 12:49:47;;;;;;;7.22;1.88;;;18.80;76.60;;;;;;5070481;28;20024;-71
2021/05/27 12:52:33;;;;;;;7.18;1.73;;;18.80;76.70;;;;;;5070225;28;20472;-74
2021/05/27 12:55:01;;;;;;;10.43;2.20;;;18.90;76.80;;;;;;5069682;28;20074;-70
2021/05/27 12:57:27;;;;;;;6.65;2.20;;;18.80;76.60;;;;;;5065317;28;20534;-72
2021/05/27 12:59:57;;;;;;;7.00;1.63;;;18.90;76.50;;;;;;5067516;28;20040;-71
2021/05/27 13:02:25;;;;;;;8.15;2.20;;;18.90;76.40;;;;;;5069779;28;20381;-71
2021/05/27 13:04:52;;;;;;;6.85;1.42;;;18.90;76.90;;;;;;5070651;28;20012;-70
2021/05/27 13:07:20;;;;;;;6.75;2.40;;;18.90;76.10;;;;;;5068001;28;20027;-69